Time;durP1;ratioP1;P1;durP2;ratioP2;P2;SDS_P1;SDS_P2;PMS_P1;PMS_P2;Temp;Humidity;BMP_temperature;BMP_pressure;BME280_temperature;BME280_humidity;BME280_pressure;Samples;Min_cycle;Max_cycle;Signal;HPM_P1;HPM_P2
2024/03/07 00:00:39;;;;;;;5.97;5.87;;;;;;;;;;5025481;28;20849;-68
2024/03/07 00:03:08;;;;;;;6.00;5.90;;;;;;;;;;5022260;28;20469;-68
2024/03/07 00:05:35;;;;;;;5.93;5.83;;;;;;;;;;5016652;28;20480;-70
2024/03/07 00:08:02;;;;;;;5.47;5.37;;;;;;;;;;5019355;28;20473;-69
2024/03/07 00:10:29;;;;;;;5.47;5.37;;;;;;;;;;5024386;28;20453;-71
2024/03/07 00:12:56;;;;;;;5.60;5.50;;;;;;;;;;5027315;28;20485;-68
2024/03/07 00:15:23;;;;;;;5.17;5.13;;;;;;;;;;5021006;28;20464;-69
2024/03/07 00:17:51;;;;;;;5.60;5.50;;;;;;;;;;5028845;28;20765;-71
2024/03/07 00:20:20;;;;;;;5.33;5.23;;;;;;;;;;5020076;28;20469;-71
2024/03/07 00:22:47;;;;;;;5.80;5.70;;;;;;;;;;5019568;28;20482;-70
2024/03/07 00:25:19;;;;;;;6.10;6.00;;;;;;;;;;5021126;28;20470;-71
2024/03/07 00:27:46;;;;;;;6.40;6.30;;;;;;;;;;5023488;28;20468;-72
2024/03/07 00:30:18;;;;;;;6.43;6.33;;;;;;;;;;5022988;28;20971;-68
2024/03/07 00:32:45;;;;;;;7.30;7.20;;;;;;;;;;5016020;28;20561;-70
2024/03/07 00:35:12;;;;;;;7.33;7.23;;;;;;;;;;5022972;28;20528;-71
2024/03/07 00:37:40;;;;;;;7.10;7.00;;;;;;;;;;5021634;28;21087;-68
2024/03/07 00:40:10;;;;;;;7.20;7.10;;;;;;;;;;5020278;28;20458;-68
2024/03/07 00:42:37;;;;;;;8.10;8.00;;;;;;;;;;5019954;28;20539;-69
2024/03/07 00:45:05;;;;;;;7.53;7.43;;;;;;;;;;5020410;28;20502;-71
2024/03/07 00:47:32;;;;;;;7.20;7.10;;;;;;;;;;5024688;28;20492;-69
2024/03/07 00:49:59;;;;;;;7.47;7.37;;;;;;;;;;5020436;28;20450;-70
2024/03/07 00:52:27;;;;;;;7.40;7.30;;;;;;;;;;5022125;28;20523;-67
2024/03/07 00:54:56;;;;;;;6.50;6.40;;;;;;;;;;5024540;28;20852;-70
2024/03/07 00:57:23;;;;;;;6.10;6.00;;;;;;;;;;5010753;28;21353;-71
2024/03/07 00:59:50;;;;;;;6.03;5.93;;;;;;;;;;4994698;28;20479;-68
2024/03/07 01:02:18;;;;;;;5.80;5.70;;;;;;;;;;4994720;28;21192;-68
2024/03/07 01:04:46;;;;;;;6.20;6.10;;;;;;;;;;4991140;28;20464;-71
2024/03/07 01:07:13;;;;;;;6.00;5.90;;;;;;;;;;4992569;28;20786;-70
2024/03/07 01:09:40;;;;;;;6.27;6.17;;;;;;;;;;4994903;28;20461;-70
2024/03/07 01:12:10;;;;;;;6.10;6.00;;;;;;;;;;4993715;28;21103;-71
2024/03/07 01:14:37;;;;;;;6.10;6.00;;;;;;;;;;4994730;28;20976;-68
2024/03/07 01:17:06;;;;;;;5.80;5.70;;;;;;;;;;4993371;28;20508;-68
2024/03/07 01:19:34;;;;;;;6.20;6.10;;;;;;;;;;4992961;28;20555;-67
2024/03/07 01:22:01;;;;;;;5.57;5.47;;;;;;;;;;4993566;28;20465;-71
2024/03/07 01:24:28;;;;;;;5.67;5.57;;;;;;;;;;4993170;28;20472;-70
2024/03/07 01:26:55;;;;;;;5.80;5.70;;;;;;;;;;4993543;28;20463;-68
2024/03/07 01:29:24;;;;;;;5.57;5.47;;;;;;;;;;4993287;28;20470;-68
2024/03/07 01:31:51;;;;;;;5.30;5.20;;;;;;;;;;4993490;28;20466;-68
2024/03/07 01:34:18;;;;;;;5.90;5.80;;;;;;;;;;4992525;28;20491;-68
2024/03/07 01:36:45;;;;;;;5.57;5.47;;;;;;;;;;4994834;28;20457;-68
2024/03/07 01:39:12;;;;;;;5.57;5.47;;;;;;;;;;4994036;28;21155;-68
2024/03/07 01:41:40;;;;;;;6.10;6.00;;;;;;;;;;4994296;28;20475;-68
2024/03/07 01:44:08;;;;;;;6.40;6.30;;;;;;;;;;4993494;28;20471;-69
2024/03/07 01:46:36;;;;;;;6.57;6.47;;;;;;;;;;4993946;28;20984;-70
2024/03/07 01:49:03;;;;;;;7.00;6.90;;;;;;;;;;4992416;28;20462;-68
2024/03/07 01:51:30;;;;;;;7.10;7.00;;;;;;;;;;4993833;28;20478;-69
2024/03/07 01:53:58;;;;;;;7.70;7.60;;;;;;;;;;4993240;28;20497;-68
2024/03/07 01:56:25;;;;;;;7.10;7.00;;;;;;;;;;4994009;28;21147;-68
2024/03/07 01:58:53;;;;;;;7.40;7.30;;;;;;;;;;5026055;28;20544;-68
2024/03/07 02:01:21;;;;;;;7.70;7.60;;;;;;;;;;5021465;28;20506;-68
2024/03/07 02:03:49;;;;;;;7.70;7.60;;;;;;;;;;5022476;28;20508;-68
2024/03/07 02:06:16;;;;;;;7.90;7.80;;;;;;;;;;5020167;28;20967;-68
2024/03/07 02:08:43;;;;;;;8.20;8.10;;;;;;;;;;5020369;28;20467;-68
2024/03/07 02:11:10;;;;;;;7.90;7.80;;;;;;;;;;5020761;28;20464;-68
2024/03/07 02:13:37;;;;;;;8.30;8.20;;;;;;;;;;5023218;28;20831;-68
2024/03/07 02:16:05;;;;;;;7.40;7.30;;;;;;;;;;5022221;28;20462;-68
2024/03/07 02:18:32;;;;;;;8.27;8.17;;;;;;;;;;5023213;28;20469;-68
2024/03/07 02:21:01;;;;;;;7.07;6.97;;;;;;;;;;5022529;28;20467;-68
2024/03/07 02:23:28;;;;;;;7.00;6.90;;;;;;;;;;5022534;28;20468;-68
2024/03/07 02:25:55;;;;;;;7.00;6.90;;;;;;;;;;5017583;28;20453;-68
2024/03/07 02:28:22;;;;;;;7.00;6.90;;;;;;;;;;5021990;28;20454;-68
2024/03/07 02:30:50;;;;;;;7.20;7.10;;;;;;;;;;5016427;28;20465;-68
2024/03/07 02:33:17;;;;;;;6.47;6.37;;;;;;;;;;5020110;28;20469;-68
2024/03/07 02:35:44;;;;;;;7.07;6.97;;;;;;;;;;5020054;28;20453;-68
2024/03/07 02:38:12;;;;;;;7.10;7.00;;;;;;;;;;5023407;28;21003;-68
2024/03/07 02:40:38;;;;;;;6.70;6.60;;;;;;;;;;5023004;28;20496;-68
2024/03/07 02:43:07;;;;;;;7.30;7.20;;;;;;;;;;5021660;28;20562;-68
2024/03/07 02:45:34;;;;;;;7.50;7.40;;;;;;;;;;5016896;28;20466;-68
2024/03/07 02:48:01;;;;;;;7.37;7.27;;;;;;;;;;5019248;28;20479;-68
2024/03/07 02:50:28;;;;;;;6.83;6.73;;;;;;;;;;5021789;28;20452;-68
2024/03/07 02:52:55;;;;;;;7.10;7.00;;;;;;;;;;5020144;28;20472;-68
2024/03/07 02:55:24;;;;;;;7.10;7.00;;;;;;;;;;5016176;28;21016;-68
2024/03/07 02:57:52;;;;;;;6.57;6.47;;;;;;;;;;5016094;28;20964;-68
2024/03/07 03:00:26;;;;;;;7.00;6.90;;;;;;;;;;5022814;28;20543;-68
2024/03/07 03:02:53;;;;;;;7.60;7.50;;;;;;;;;;5023388;28;20469;-68
2024/03/07 03:05:21;;;;;;;6.77;6.67;;;;;;;;;;5018125;28;20469;-68
2024/03/07 03:07:53;;;;;;;7.20;7.10;;;;;;;;;;5021803;28;21338;-68
2024/03/07 03:10:24;;;;;;;7.40;7.30;;;;;;;;;;5020390;28;21031;-68
2024/03/07 03:12:54;;;;;;;7.60;7.50;;;;;;;;;;5023612;28;20461;-68
2024/03/07 03:15:21;;;;;;;7.57;7.47;;;;;;;;;;5023617;28;20583;-68
2024/03/07 03:17:49;;;;;;;7.90;7.80;;;;;;;;;;5023024;28;20471;-68
2024/03/07 03:20:24;;;;;;;8.87;8.77;;;;;;;;;;5022888;28;20965;-69
2024/03/07 03:22:52;;;;;;;9.20;9.10;;;;;;;;;;5023804;28;20464;-68
2024/03/07 03:25:20;;;;;;;9.43;9.23;;;;;;;;;;5024292;28;20460;-68
2024/03/07 03:27:50;;;;;;;9.10;9.00;;;;;;;;;;5021587;28;20468;-68
2024/03/07 03:30:19;;;;;;;9.70;9.50;;;;;;;;;;5023534;28;20479;-68
2024/03/07 03:32:48;;;;;;;9.03;8.93;;;;;;;;;;5023072;28;20475;-69
2024/03/07 03:35:15;;;;;;;9.57;9.37;;;;;;;;;;5017512;28;21161;-69
2024/03/07 03:37:43;;;;;;;10.40;10.20;;;;;;;;;;5018939;28;20480;-69
2024/03/07 03:40:10;;;;;;;9.70;9.50;;;;;;;;;;5019786;28;20918;-69
2024/03/07 03:42:38;;;;;;;10.50;10.30;;;;;;;;;;5027249;28;20472;-69
2024/03/07 03:45:07;;;;;;;10.37;10.17;;;;;;;;;;5028320;28;20488;-69
2024/03/07 03:47:36;;;;;;;10.40;10.20;;;;;;;;;;5017328;28;20461;-71
2024/03/07 03:50:04;;;;;;;10.00;9.80;;;;;;;;;;5013211;28;20475;-69
2024/03/07 03:52:31;;;;;;;10.50;10.30;;;;;;;;;;5025639;28;20471;-69
2024/03/07 03:54:58;;;;;;;11.00;10.80;;;;;;;;;;5020263;28;20499;-69
2024/03/07 03:57:26;;;;;;;10.60;10.40;;;;;;;;;;5026306;28;20468;-69
2024/03/07 03:59:53;;;;;;;10.23;10.03;;;;;;;;;;5024970;28;20467;-69
2024/03/07 04:02:20;;;;;;;11.40;11.20;;;;;;;;;;5025484;28;20519;-69
2024/03/07 04:04:48;;;;;;;11.20;11.00;;;;;;;;;;5017544;28;20494;-68
2024/03/07 04:07:16;;;;;;;10.83;10.63;;;;;;;;;;5024217;28;20473;-69
2024/03/07 04:09:43;;;;;;;10.83;10.63;;;;;;;;;;5024959;28;20509;-68
2024/03/07 04:12:11;;;;;;;11.07;10.87;;;;;;;;;;5019459;28;20477;-69
2024/03/07 04:14:38;;;;;;;11.00;10.80;;;;;;;;;;5020979;28;20887;-68
2024/03/07 04:17:07;;;;;;;11.17;10.97;;;;;;;;;;5024435;28;20465;-68
2024/03/07 04:19:35;;;;;;;11.00;10.80;;;;;;;;;;5025328;28;20472;-68
2024/03/07 04:22:04;;;;;;;10.80;10.60;;;;;;;;;;5021310;28;20982;-68
2024/03/07 04:24:32;;;;;;;10.60;10.40;;;;;;;;;;5021244;28;20551;-68
2024/03/07 04:26:59;;;;;;;10.77;10.57;;;;;;;;;;5022657;28;20958;-68
2024/03/07 04:29:27;;;;;;;11.60;11.33;;;;;;;;;;5023927;28;20477;-68
2024/03/07 04:31:54;;;;;;;11.63;11.33;;;;;;;;;;5021829;28;20469;-68
2024/03/07 04:34:22;;;;;;;12.20;11.90;;;;;;;;;;5014080;28;20608;-69
2024/03/07 04:36:50;;;;;;;11.63;11.33;;;;;;;;;;5020212;28;21047;-68
2024/03/07 04:39:26;;;;;;;12.13;11.83;;;;;;;;;;5021934;28;21093;-69
2024/03/07 04:41:53;;;;;;;11.87;11.57;;;;;;;;;;5017889;28;20460;-68
2024/03/07 04:44:22;;;;;;;12.90;12.60;;;;;;;;;;5026696;28;20470;-68
2024/03/07 04:46:55;;;;;;;12.20;11.90;;;;;;;;;;5014359;28;20846;-68
2024/03/07 04:49:22;;;;;;;12.83;12.53;;;;;;;;;;5019435;28;20469;-68
2024/03/07 04:51:49;;;;;;;13.70;13.30;;;;;;;;;;5022676;28;20463;-69
2024/03/07 04:54:16;;;;;;;13.37;13.00;;;;;;;;;;5017059;28;20492;-69
2024/03/07 04:56:45;;;;;;;13.20;12.90;;;;;;;;;;5024998;28;20881;-68
2024/03/07 04:59:12;;;;;;;12.40;12.10;;;;;;;;;;5017534;28;20479;-69
2024/03/07 05:01:39;;;;;;;12.80;12.50;;;;;;;;;;5017528;28;20992;-68
2024/03/07 05:04:06;;;;;;;13.23;12.93;;;;;;;;;;5018543;28;20478;-68
2024/03/07 05:06:33;;;;;;;13.00;12.70;;;;;;;;;;5017511;28;20518;-68
2024/03/07 05:09:02;;;;;;;12.50;12.20;;;;;;;;;;5023267;28;20738;-69
2024/03/07 05:11:30;;;;;;;12.60;12.30;;;;;;;;;;5017556;28;21030;-68
2024/03/07 05:13:59;;;;;;;12.27;11.97;;;;;;;;;;5020138;28;20459;-68
2024/03/07 05:16:27;;;;;;;10.97;10.77;;;;;;;;;;5019797;28;20469;-68
2024/03/07 05:18:55;;;;;;;11.30;11.10;;;;;;;;;;5016754;28;20814;-71
2024/03/07 05:21:37;;;;;;;10.80;10.60;;;;;;;;;;5014013;28;20587;-68
2024/03/07 05:24:05;;;;;;;11.00;10.80;;;;;;;;;;5021245;28;20464;-68
2024/03/07 05:26:33;;;;;;;10.57;10.37;;;;;;;;;;5015056;28;20549;-68
2024/03/07 05:29:05;;;;;;;10.70;10.50;;;;;;;;;;5017577;28;20479;-68
2024/03/07 05:31:33;;;;;;;11.00;10.80;;;;;;;;;;5023617;28;20491;-68
2024/03/07 05:34:03;;;;;;;10.40;10.20;;;;;;;;;;5021342;28;20474;-68
2024/03/07 05:36:30;;;;;;;10.40;10.20;;;;;;;;;;5015356;28;20504;-68
2024/03/07 05:38:58;;;;;;;10.50;10.30;;;;;;;;;;5017127;28;20642;-68
2024/03/07 05:41:29;;;;;;;10.27;10.07;;;;;;;;;;5024728;28;20490;-68
2024/03/07 05:43:56;;;;;;;11.20;11.00;;;;;;;;;;5017946;28;20488;-68
2024/03/07 05:46:25;;;;;;;11.37;11.17;;;;;;;;;;5021833;28;20515;-69
2024/03/07 05:48:55;;;;;;;10.97;10.77;;;;;;;;;;5011453;28;20845;-69
2024/03/07 05:51:24;;;;;;;11.30;11.10;;;;;;;;;;5018475;28;20841;-69
2024/03/07 05:53:51;;;;;;;11.50;11.30;;;;;;;;;;5017205;28;20461;-68
2024/03/07 05:56:18;;;;;;;11.53;11.33;;;;;;;;;;5013073;28;21010;-68
2024/03/07 05:58:45;;;;;;;12.30;12.00;;;;;;;;;;5022503;28;20457;-68
2024/03/07 06:01:12;;;;;;;12.20;11.90;;;;;;;;;;5012710;28;21016;-68
2024/03/07 06:03:42;;;;;;;12.50;12.20;;;;;;;;;;5015942;28;21107;-68
2024/03/07 06:06:11;;;;;;;12.60;12.30;;;;;;;;;;5016434;28;20471;-68
2024/03/07 06:08:38;;;;;;;12.90;12.60;;;;;;;;;;5024927;28;20457;-68
2024/03/07 06:11:06;;;;;;;12.90;12.60;;;;;;;;;;5014854;28;20465;-68
2024/03/07 06:13:33;;;;;;;12.20;11.90;;;;;;;;;;5020539;28;21000;-68
2024/03/07 06:16:05;;;;;;;12.53;12.23;;;;;;;;;;5010715;28;20489;-68
2024/03/07 06:18:32;;;;;;;13.00;12.70;;;;;;;;;;5020242;28;20465;-68
2024/03/07 06:21:01;;;;;;;12.37;12.07;;;;;;;;;;5013736;28;20463;-69
2024/03/07 06:23:28;;;;;;;12.60;12.30;;;;;;;;;;5015723;28;20551;-68
2024/03/07 06:25:58;;;;;;;12.73;12.43;;;;;;;;;;5016030;28;20556;-68
2024/03/07 06:28:25;;;;;;;11.97;11.67;;;;;;;;;;5012463;28;20462;-68
2024/03/07 06:30:54;;;;;;;12.77;12.47;;;;;;;;;;5017120;28;20475;-68
2024/03/07 06:33:22;;;;;;;13.60;13.30;;;;;;;;;;5019201;28;20473;-68
2024/03/07 06:35:50;;;;;;;14.57;14.17;;;;;;;;;;5013682;28;20505;-68
2024/03/07 06:38:18;;;;;;;14.77;14.37;;;;;;;;;;5013149;28;20464;-69
2024/03/07 06:40:45;;;;;;;14.30;13.90;;;;;;;;;;5018710;28;20975;-68
2024/03/07 06:43:13;;;;;;;14.17;13.77;;;;;;;;;;5013647;28;20473;-69
2024/03/07 06:45:43;;;;;;;13.90;13.57;;;;;;;;;;5017587;28;20469;-69
2024/03/07 06:48:10;;;;;;;14.17;13.77;;;;;;;;;;5013634;28;20487;-68
2024/03/07 06:50:38;;;;;;;14.80;14.40;;;;;;;;;;5019335;28;20453;-69
2024/03/07 06:53:06;;;;;;;14.30;13.90;;;;;;;;;;5014855;28;20468;-70
2024/03/07 06:55:35;;;;;;;14.20;13.80;;;;;;;;;;5018850;28;20592;-69
2024/03/07 06:58:04;;;;;;;14.37;13.97;;;;;;;;;;5009311;28;20508;-69
2024/03/07 07:00:31;;;;;;;14.90;14.50;;;;;;;;;;5019026;28;20496;-68
2024/03/07 07:02:59;;;;;;;14.60;14.20;;;;;;;;;;5014595;28;20472;-69
2024/03/07 07:05:26;;;;;;;14.23;13.83;;;;;;;;;;5016240;28;20862;-69
2024/03/07 07:07:53;;;;;;;13.50;13.20;;;;;;;;;;5019160;28;20480;-68
2024/03/07 07:10:23;;;;;;;14.07;13.67;;;;;;;;;;5018317;28;20468;-71
2024/03/07 07:12:54;;;;;;;15.00;14.60;;;;;;;;;;5016347;28;20468;-69
2024/03/07 07:15:22;;;;;;;15.10;14.70;;;;;;;;;;5018018;28;20478;-70
2024/03/07 07:17:49;;;;;;;15.10;14.70;;;;;;;;;;5018314;28;20853;-71
2024/03/07 07:20:17;;;;;;;14.90;14.50;;;;;;;;;;5019691;28;20479;-69
2024/03/07 07:22:45;;;;;;;15.20;14.80;;;;;;;;;;5022967;28;20452;-69
2024/03/07 07:25:14;;;;;;;14.50;14.10;;;;;;;;;;5020496;28;20551;-69
2024/03/07 07:27:45;;;;;;;15.57;15.17;;;;;;;;;;5012068;28;20533;-69
2024/03/07 07:30:15;;;;;;;15.50;15.10;;;;;;;;;;5014179;28;20468;-69
2024/03/07 07:32:42;;;;;;;15.20;14.80;;;;;;;;;;5019495;28;20492;-69
2024/03/07 07:35:11;;;;;;;14.47;14.07;;;;;;;;;;5015883;28;20493;-69
2024/03/07 07:37:39;;;;;;;13.40;13.10;;;;;;;;;;5018188;28;20834;-69
2024/03/07 07:40:08;;;;;;;14.47;14.07;;;;;;;;;;5020875;28;20980;-69
2024/03/07 07:42:38;;;;;;;15.40;15.00;;;;;;;;;;5017434;28;20944;-71
2024/03/07 07:45:06;;;;;;;14.53;14.13;;;;;;;;;;5017584;28;20483;-69
2024/03/07 07:47:37;;;;;;;14.03;13.67;;;;;;;;;;5021108;28;20551;-69
2024/03/07 07:50:06;;;;;;;13.67;13.37;;;;;;;;;;5015884;28;20515;-69
2024/03/07 07:52:35;;;;;;;14.80;14.40;;;;;;;;;;5018090;28;20557;-69
2024/03/07 07:55:02;;;;;;;15.33;14.93;;;;;;;;;;5011481;28;20899;-69
2024/03/07 07:57:29;;;;;;;14.53;14.13;;;;;;;;;;5018933;28;20484;-69
2024/03/07 07:59:56;;;;;;;14.83;14.43;;;;;;;;;;5020972;28;20466;-69
2024/03/07 08:02:23;;;;;;;14.93;14.53;;;;;;;;;;5019750;28;21007;-69
2024/03/07 08:04:52;;;;;;;15.60;15.20;;;;;;;;;;5015547;28;20621;-69
2024/03/07 08:07:19;;;;;;;15.80;15.30;;;;;;;;;;5020571;28;20504;-69
2024/03/07 08:09:46;;;;;;;16.03;15.53;;;;;;;;;;5022110;28;20466;-69
2024/03/07 08:12:14;;;;;;;15.33;14.93;;;;;;;;;;5020261;28;20464;-69
2024/03/07 08:14:41;;;;;;;15.60;15.20;;;;;;;;;;5021029;28;20559;-69
2024/03/07 08:17:09;;;;;;;15.03;14.63;;;;;;;;;;5021622;28;21216;-69
2024/03/07 08:19:36;;;;;;;14.93;14.53;;;;;;;;;;5014833;28;20520;-71
2024/03/07 08:22:05;;;;;;;14.73;14.33;;;;;;;;;;5023667;28;20458;-69
2024/03/07 08:24:33;;;;;;;14.47;14.07;;;;;;;;;;5021238;28;20483;-69
2024/03/07 08:27:00;;;;;;;14.57;14.17;;;;;;;;;;5022817;28;20932;-71
2024/03/07 08:29:29;;;;;;;14.87;14.40;;;;;;;;;;5018018;28;20470;-72
2024/03/07 08:31:56;;;;;;;14.87;14.37;;;;;;;;;;5018032;28;20463;-69
2024/03/07 08:34:24;;;;;;;14.77;14.27;;;;;;;;;;5018318;28;20470;-70
2024/03/07 08:36:51;;;;;;;14.30;13.90;;;;;;;;;;5019959;28;20617;-69
2024/03/07 08:39:19;;;;;;;13.90;13.50;;;;;;;;;;5026460;28;20996;-69
2024/03/07 08:41:47;;;;;;;14.10;13.70;;;;;;;;;;5015962;28;20457;-70
2024/03/07 08:44:14;;;;;;;13.90;13.50;;;;;;;;;;5016889;28;20584;-70
2024/03/07 08:46:43;;;;;;;13.37;12.97;;;;;;;;;;5021127;28;20461;-70
2024/03/07 08:49:12;;;;;;;12.93;12.53;;;;;;;;;;5019298;28;20464;-70
2024/03/07 08:51:39;;;;;;;13.47;13.07;;;;;;;;;;5021699;28;20994;-69
2024/03/07 08:54:06;;;;;;;13.10;12.70;;;;;;;;;;5023689;28;20460;-72
2024/03/07 08:56:35;;;;;;;13.13;12.73;;;;;;;;;;5021897;28;20915;-72
2024/03/07 08:59:02;;;;;;;14.00;13.50;;;;;;;;;;5020042;28;20465;-70
2024/03/07 09:01:29;;;;;;;14.27;13.77;;;;;;;;;;5020685;28;20610;-72
2024/03/07 09:03:59;;;;;;;15.83;15.13;;;;;;;;;;5016094;28;20463;-70
2024/03/07 09:06:26;;;;;;;14.70;14.10;;;;;;;;;;5018104;28;20463;-72
2024/03/07 09:08:53;;;;;;;15.20;14.60;;;;;;;;;;5025012;28;20840;-70
2024/03/07 09:11:20;;;;;;;15.60;15.00;;;;;;;;;;5018536;28;20474;-72
2024/03/07 09:13:49;;;;;;;16.00;15.30;;;;;;;;;;5021137;28;20487;-70
2024/03/07 09:16:16;;;;;;;15.70;15.10;;;;;;;;;;5019467;28;20497;-70
2024/03/07 09:18:44;;;;;;;15.53;14.93;;;;;;;;;;5020675;28;20886;-70
2024/03/07 09:21:11;;;;;;;15.53;14.93;;;;;;;;;;5020705;28;20482;-71
2024/03/07 09:23:38;;;;;;;15.90;15.30;;;;;;;;;;5020747;28;20463;-71
2024/03/07 09:26:07;;;;;;;16.67;15.97;;;;;;;;;;5020462;28;20461;-70
2024/03/07 09:28:34;;;;;;;16.50;15.80;;;;;;;;;;5021092;28;21133;-72
2024/03/07 09:31:03;;;;;;;16.00;15.40;;;;;;;;;;5021666;28;20887;-71
2024/03/07 09:33:31;;;;;;;16.63;15.93;;;;;;;;;;5013731;28;20666;-71
2024/03/07 09:35:58;;;;;;;17.00;16.30;;;;;;;;;;5011752;28;20496;-73
2024/03/07 09:38:27;;;;;;;16.17;15.57;;;;;;;;;;5009892;28;20469;-69
2024/03/07 09:40:54;;;;;;;17.10;16.40;;;;;;;;;;5014826;28;20470;-70
2024/03/07 09:43:22;;;;;;;16.47;15.87;;;;;;;;;;5016065;28;20474;-70
2024/03/07 09:45:50;;;;;;;16.73;16.03;;;;;;;;;;5018259;28;20505;-72
2024/03/07 09:48:19;;;;;;;16.77;16.13;;;;;;;;;;5017522;28;20465;-71
2024/03/07 09:50:47;;;;;;;17.60;16.90;;;;;;;;;;5012115;28;20479;-70
2024/03/07 09:53:15;;;;;;;16.80;16.10;;;;;;;;;;5016074;28;20462;-70
2024/03/07 09:55:42;;;;;;;17.10;16.40;;;;;;;;;;5014110;28;20478;-73
2024/03/07 09:58:10;;;;;;;17.03;16.33;;;;;;;;;;5021830;28;20462;-71
2024/03/07 10:00:38;;;;;;;16.50;15.90;;;;;;;;;;5015191;28;21072;-73
2024/03/07 10:03:07;;;;;;;16.73;16.13;;;;;;;;;;5021737;28;20956;-73
2024/03/07 10:05:37;;;;;;;17.20;16.50;;;;;;;;;;5015359;28;20545;-71
2024/03/07 10:08:05;;;;;;;16.67;16.07;;;;;;;;;;5016990;28;20488;-72
2024/03/07 10:10:34;;;;;;;16.60;16.00;;;;;;;;;;5021513;28;20988;-71
2024/03/07 10:13:01;;;;;;;16.90;16.27;;;;;;;;;;5013639;28;20501;-71
2024/03/07 10:15:29;;;;;;;16.83;16.23;;;;;;;;;;5018877;28;20462;-71
2024/03/07 10:17:56;;;;;;;16.97;16.33;;;;;;;;;;5019962;28;20514;-71
2024/03/07 10:20:24;;;;;;;16.43;15.83;;;;;;;;;;5013533;28;20465;-71
2024/03/07 10:22:52;;;;;;;17.00;16.37;;;;;;;;;;5019716;28;20454;-71
2024/03/07 10:25:21;;;;;;;17.07;16.37;;;;;;;;;;5018730;28;20634;-71
2024/03/07 10:27:49;;;;;;;16.50;15.90;;;;;;;;;;5013101;28;20460;-72
2024/03/07 10:30:20;;;;;;;16.50;15.90;;;;;;;;;;5017527;28;20559;-71
2024/03/07 10:32:47;;;;;;;17.10;16.40;;;;;;;;;;5019057;28;20455;-73
2024/03/07 10:35:15;;;;;;;16.87;16.17;;;;;;;;;;5019125;28;21150;-72
2024/03/07 10:37:45;;;;;;;17.07;16.37;;;;;;;;;;5020852;28;20501;-73
2024/03/07 10:40:17;;;;;;;17.30;16.60;;;;;;;;;;5017936;28;20484;-70
2024/03/07 10:42:51;;;;;;;17.40;16.70;;;;;;;;;;5014981;28;20469;-71
2024/03/07 10:45:21;;;;;;;17.57;16.87;;;;;;;;;;5018552;28;20462;-73
2024/03/07 10:47:50;;;;;;;16.63;16.03;;;;;;;;;;5020427;28;20975;-71
2024/03/07 10:50:21;;;;;;;16.77;16.17;;;;;;;;;;5016230;28;20495;-73
2024/03/07 10:52:51;;;;;;;16.90;16.20;;;;;;;;;;5016315;28;20911;-71
2024/03/07 10:55:25;;;;;;;17.33;16.63;;;;;;;;;;5017087;28;20490;-71
2024/03/07 10:57:55;;;;;;;17.10;16.40;;;;;;;;;;5018512;28;20498;-72
2024/03/07 11:00:35;;;;;;;16.53;15.93;;;;;;;;;;5018437;28;20477;-71
2024/03/07 11:03:06;;;;;;;16.40;15.80;;;;;;;;;;5018388;28;20462;-70
2024/03/07 11:05:34;;;;;;;16.70;16.10;;;;;;;;;;5021088;28;20560;-73
2024/03/07 11:08:11;;;;;;;16.83;16.23;;;;;;;;;;5015687;28;20981;-71
2024/03/07 11:10:39;;;;;;;16.87;16.27;;;;;;;;;;5017484;28;20466;-71
2024/03/07 11:13:10;;;;;;;16.67;16.07;;;;;;;;;;5016473;28;21047;-72
2024/03/07 11:15:38;;;;;;;16.40;15.80;;;;;;;;;;5017759;28;20967;-71
2024/03/07 11:18:08;;;;;;;16.90;16.30;;;;;;;;;;5021202;28;20519;-70
2024/03/07 11:20:36;;;;;;;16.90;16.30;;;;;;;;;;5018122;28;20493;-71
2024/03/07 11:23:26;;;;;;;16.83;16.23;;;;;;;;;;5021704;28;20473;-71
2024/03/07 11:25:56;;;;;;;17.17;16.57;;;;;;;;;;5018337;28;20465;-74
2024/03/07 11:28:31;;;;;;;17.50;16.80;;;;;;;;;;5019164;28;20458;-71
2024/03/07 11:31:09;;;;;;;17.37;16.67;;;;;;;;;;5023272;28;20470;-70
2024/03/07 11:33:39;;;;;;;16.83;16.23;;;;;;;;;;5018279;28;20473;-71
2024/03/07 11:36:07;;;;;;;17.10;16.50;;;;;;;;;;5018630;28;20456;-71
2024/03/07 11:38:34;;;;;;;16.53;15.93;;;;;;;;;;5020938;28;20472;-75
2024/03/07 11:41:04;;;;;;;16.40;15.80;;;;;;;;;;5022306;28;21159;-74
2024/03/07 11:43:31;;;;;;;16.90;16.30;;;;;;;;;;5023836;28;20456;-71
2024/03/07 11:45:58;;;;;;;15.60;15.10;;;;;;;;;;5018942;28;20467;-73
2024/03/07 11:48:26;;;;;;;15.87;15.37;;;;;;;;;;5017115;28;20473;-74
2024/03/07 11:50:55;;;;;;;16.87;16.27;;;;;;;;;;5022492;28;20472;-72
2024/03/07 11:53:22;;;;;;;16.60;16.00;;;;;;;;;;5024010;28;20879;-71
2024/03/07 11:55:50;;;;;;;16.40;15.80;;;;;;;;;;5023171;28;20533;-75
2024/03/07 11:58:21;;;;;;;16.60;16.00;;;;;;;;;;5018147;28;20498;-73
2024/03/07 12:00:49;;;;;;;16.80;16.20;;;;;;;;;;5018680;28;20496;-73
2024/03/07 12:03:18;;;;;;;17.60;16.90;;;;;;;;;;5018109;28;20457;-71
2024/03/07 12:05:46;;;;;;;17.17;16.57;;;;;;;;;;5023400;28;20469;-72
2024/03/07 12:08:13;;;;;;;17.13;16.53;;;;;;;;;;5016489;28;20468;-72
2024/03/07 12:10:43;;;;;;;17.20;16.60;;;;;;;;;;5028206;28;20479;-72
2024/03/07 12:13:12;;;;;;;17.30;16.63;;;;;;;;;;5015615;28;20985;-72
2024/03/07 12:15:41;;;;;;;17.00;16.40;;;;;;;;;;5022001;28;20459;-72
2024/03/07 12:18:09;;;;;;;16.50;15.90;;;;;;;;;;5017173;28;20499;-72
2024/03/07 12:20:41;;;;;;;17.23;16.63;;;;;;;;;;5018234;28;20487;-72
2024/03/07 12:23:09;;;;;;;17.23;16.63;;;;;;;;;;5022199;28;20988;-72
2024/03/07 12:25:37;;;;;;;17.30;16.70;;;;;;;;;;5022376;28;20475;-71
2024/03/07 12:28:06;;;;;;;16.87;16.27;;;;;;;;;;5014784;28;20470;-74
2024/03/07 12:30:39;;;;;;;17.10;16.50;;;;;;;;;;5021170;28;20823;-70
2024/03/07 12:33:08;;;;;;;17.30;16.67;;;;;;;;;;5019874;28;20863;-75
2024/03/07 12:35:36;;;;;;;16.93;16.33;;;;;;;;;;5015387;28;20513;-74
2024/03/07 12:38:04;;;;;;;16.87;16.27;;;;;;;;;;5020512;28;20744;-73
2024/03/07 12:40:33;;;;;;;16.50;15.90;;;;;;;;;;5019922;28;20463;-74
2024/03/07 12:43:02;;;;;;;16.60;16.00;;;;;;;;;;5019237;28;21369;-70
2024/03/07 12:45:33;;;;;;;15.70;15.20;;;;;;;;;;5019507;28;20457;-73
2024/03/07 12:48:04;;;;;;;15.80;15.30;;;;;;;;;;5020130;28;20458;-72
2024/03/07 12:50:34;;;;;;;15.90;15.40;;;;;;;;;;5022159;28;20543;-71
2024/03/07 12:53:05;;;;;;;16.93;16.33;;;;;;;;;;5016559;28;20470;-72
2024/03/07 12:55:32;;;;;;;16.83;16.23;;;;;;;;;;5012170;28;20479;-73
2024/03/07 12:57:59;;;;;;;16.13;15.53;;;;;;;;;;5017471;28;21172;-71
2024/03/07 13:00:29;;;;;;;16.53;15.93;;;;;;;;;;5020213;28;20463;-71
2024/03/07 13:02:57;;;;;;;16.57;15.97;;;;;;;;;;5013986;28;20519;-74
2024/03/07 13:05:25;;;;;;;16.20;15.60;;;;;;;;;;5017407;28;20538;-73
2024/03/07 13:07:55;;;;;;;16.13;15.53;;;;;;;;;;5017050;28;21300;-73
2024/03/07 13:10:23;;;;;;;17.50;16.80;;;;;;;;;;5024747;28;20458;-70
2024/03/07 13:12:51;;;;;;;16.53;15.93;;;;;;;;;;5019633;28;20648;-71
2024/03/07 13:15:21;;;;;;;16.17;15.57;;;;;;;;;;5011824;28;21035;-73
2024/03/07 13:17:49;;;;;;;16.10;15.50;;;;;;;;;;5019275;28;20481;-72
2024/03/07 13:20:16;;;;;;;16.07;15.47;;;;;;;;;;5015897;28;20463;-70
2024/03/07 13:22:44;;;;;;;16.20;15.60;;;;;;;;;;5024137;28;20485;-71
2024/03/07 13:25:17;;;;;;;15.50;15.00;;;;;;;;;;5019358;28;20470;-70
2024/03/07 13:27:45;;;;;;;16.33;15.73;;;;;;;;;;5015696;28;20569;-73
2024/03/07 13:30:23;;;;;;;15.57;15.07;;;;;;;;;;5023977;28;20471;-71
2024/03/07 13:32:52;;;;;;;16.30;15.70;;;;;;;;;;5018953;28;20460;-72
2024/03/07 13:35:20;;;;;;;15.90;15.30;;;;;;;;;;5019884;28;20441;-70
2024/03/07 13:37:48;;;;;;;16.03;15.43;;;;;;;;;;5012540;28;20490;-72
2024/03/07 13:40:25;;;;;;;16.40;15.80;;;;;;;;;;5023927;28;20455;-72
2024/03/07 13:42:53;;;;;;;16.50;15.90;;;;;;;;;;5016065;28;20466;-70
2024/03/07 13:45:22;;;;;;;16.00;15.40;;;;;;;;;;5018925;28;20471;-70
2024/03/07 13:47:49;;;;;;;15.87;15.27;;;;;;;;;;5019119;28;20500;-71
2024/03/07 13:50:19;;;;;;;15.80;15.20;;;;;;;;;;5018079;28;21044;-73
2024/03/07 13:53:04;;;;;;;16.10;15.50;;;;;;;;;;5019909;28;20465;-70
2024/03/07 13:55:33;;;;;;;15.67;15.17;;;;;;;;;;5017750;28;20587;-73
2024/03/07 13:58:04;;;;;;;15.90;15.30;;;;;;;;;;5019837;28;20487;-70
2024/03/07 14:00:38;;;;;;;15.90;15.33;;;;;;;;;;5018533;28;20896;-70
2024/03/07 14:03:32;;;;;;;16.00;15.40;;;;;;;;;;5020011;28;20469;-70
2024/03/07 14:06:01;;;;;;;15.97;15.37;;;;;;;;;;5019363;28;20461;-71
2024/03/07 14:08:50;;;;;;;16.93;16.27;;;;;;;;;;5017190;28;20488;-70
2024/03/07 14:11:38;;;;;;;16.87;16.23;;;;;;;;;;5024703;28;20549;-70
2024/03/07 14:14:11;;;;;;;16.83;16.23;;;;;;;;;;5018763;28;20468;-69
2024/03/07 14:16:59;;;;;;;16.30;15.70;;;;;;;;;;5023698;28;20453;-69
2024/03/07 14:19:45;;;;;;;16.93;16.33;;;;;;;;;;5012113;28;20464;-70
2024/03/07 14:22:21;;;;;;;16.50;15.90;;;;;;;;;;5013114;28;20493;-70
2024/03/07 14:25:18;;;;;;;16.87;16.27;;;;;;;;;;5013982;28;20466;-70
2024/03/07 14:27:59;;;;;;;16.70;16.10;;;;;;;;;;5011073;28;20523;-69
2024/03/07 14:30:40;;;;;;;16.93;16.33;;;;;;;;;;5019531;28;20471;-71
2024/03/07 14:33:08;;;;;;;16.63;16.03;;;;;;;;;;5015934;28;20470;-70